createdAt,value
2017-11-05T00:01:34.274Z,91.20
2017-11-05T00:04:35.753Z,91.30
2017-11-05T00:07:37.181Z,91.20
2017-11-05T00:10:38.640Z,91.20
2017-11-05T00:13:40.087Z,91.20
2017-11-05T00:16:41.505Z,91.10
2017-11-05T00:19:43.440Z,91.40
2017-11-05T00:22:45.568Z,91.50
2017-11-05T00:25:47.011Z,91.50
2017-11-05T00:28:48.463Z,91.60
2017-11-05T00:31:49.816Z,91.60
2017-11-05T00:34:51.283Z,91.70
2017-11-05T00:37:52.707Z,91.60
2017-11-05T00:40:54.115Z,91.80
2017-11-05T00:43:56.262Z,92.10
2017-11-05T00:46:57.717Z,92.00
2017-11-05T00:49:59.141Z,91.90
2017-11-05T00:53:00.599Z,91.80
2017-11-05T00:56:02.000Z,92.00
2017-11-05T00:59:03.570Z,92.30
2017-11-05T01:02:05.024Z,92.10
2017-11-05T01:05:06.441Z,92.40
2017-11-05T01:08:07.826Z,92.80
2017-11-05T01:11:09.327Z,93.20
2017-11-05T01:14:10.723Z,93.00
2017-11-05T01:17:12.131Z,93.00
2017-11-05T01:20:13.564Z,92.90
2017-11-05T01:23:14.930Z,93.20
2017-11-05T01:26:16.375Z,92.80
2017-11-05T01:29:17.797Z,92.80
2017-11-05T01:32:19.259Z,93.00
2017-11-05T01:35:20.675Z,92.80
2017-11-05T01:38:22.861Z,92.80
2017-11-05T01:41:24.323Z,92.80
2017-11-05T01:44:25.772Z,92.70
2017-11-05T01:47:27.275Z,92.60
2017-11-05T01:50:28.731Z,92.90
2017-11-05T01:53:30.190Z,93.10
2017-11-05T01:56:31.667Z,93.20
2017-11-05T01:59:33.891Z,93.40
2017-11-05T02:02:35.342Z,93.40
2017-11-05T02:05:37.583Z,93.00
2017-11-05T02:08:39.010Z,93.00
2017-11-05T02:11:41.192Z,93.00
2017-11-05T02:14:42.655Z,93.00
2017-11-05T02:17:44.111Z,92.90
2017-11-05T02:20:45.620Z,92.90
2017-11-05T02:23:47.081Z,93.20
2017-11-05T02:26:49.277Z,93.30
2017-11-05T02:29:50.708Z,93.20
2017-11-05T02:32:52.873Z,93.30
2017-11-05T02:35:55.120Z,93.10
2017-11-05T02:38:56.606Z,93.00
2017-11-05T02:41:58.848Z,93.00
2017-11-05T02:45:00.378Z,92.90
2017-11-05T02:48:01.914Z,93.00
2017-11-05T02:51:03.392Z,92.90
2017-11-05T02:54:04.927Z,92.60
2017-11-05T02:57:06.445Z,92.60
2017-11-05T03:00:08.692Z,92.50
2017-11-05T03:03:10.236Z,92.40
2017-11-05T03:06:11.726Z,92.40
2017-11-05T03:09:13.938Z,92.50
2017-11-05T03:12:15.323Z,92.40
2017-11-05T03:15:16.742Z,92.30
2017-11-05T03:18:18.163Z,92.20
2017-11-05T03:21:19.606Z,92.10
2017-11-05T03:24:21.801Z,92.10
2017-11-05T03:27:23.309Z,92.00
2017-11-05T03:30:24.751Z,92.00
2017-11-05T03:33:26.279Z,92.00
2017-11-05T03:36:27.759Z,92.00
2017-11-05T03:39:29.226Z,92.00
2017-11-05T03:42:31.466Z,92.00
2017-11-05T03:45:32.926Z,91.90
2017-11-05T03:48:34.327Z,91.80
2017-11-05T03:51:35.769Z,91.90
2017-11-05T03:54:37.974Z,92.10
2017-11-05T03:57:39.409Z,92.10
2017-11-05T04:00:40.869Z,92.00
2017-11-05T04:03:42.351Z,92.10
2017-11-05T04:06:43.810Z,91.80
2017-11-05T04:09:45.260Z,91.60
2017-11-05T04:12:46.678Z,91.50
2017-11-05T04:15:48.111Z,91.70
2017-11-05T04:18:50.320Z,92.00
2017-11-05T04:21:51.788Z,92.00
2017-11-05T04:24:53.206Z,91.90
2017-11-05T04:27:54.753Z,91.90
2017-11-05T04:30:56.209Z,92.00
2017-11-05T04:33:57.606Z,91.70
2017-11-05T04:36:59.091Z,91.60
2017-11-05T04:40:01.286Z,91.90
2017-11-05T04:43:02.769Z,91.90
2017-11-05T04:46:04.184Z,91.90
2017-11-05T04:49:05.688Z,91.80
2017-11-05T04:52:07.098Z,91.60
2017-11-05T04:55:08.523Z,91.80
2017-11-05T04:58:10.783Z,91.90
2017-11-05T05:01:12.931Z,91.80
2017-11-05T05:04:14.387Z,91.80
2017-11-05T05:07:15.846Z,91.90
2017-11-05T05:10:17.368Z,91.90
2017-11-05T05:13:18.867Z,92.10
2017-11-05T05:16:21.027Z,92.20
2017-11-05T05:19:22.474Z,92.10
2017-11-05T05:22:23.924Z,92.30
2017-11-05T05:25:25.376Z,92.30
2017-11-05T05:28:26.842Z,92.20
2017-11-05T05:31:28.296Z,92.20
2017-11-05T05:34:29.722Z,92.00
2017-11-05T05:37:31.168Z,92.60
2017-11-05T05:40:32.599Z,92.70
2017-11-05T05:43:34.180Z,92.40
2017-11-05T05:46:35.619Z,92.60
2017-11-05T05:49:37.154Z,92.70
2017-11-05T05:52:38.602Z,92.70
2017-11-05T05:55:40.036Z,92.90
2017-11-05T05:58:42.345Z,92.40
2017-11-05T06:01:43.764Z,92.40
2017-11-05T06:04:45.260Z,92.60
2017-11-05T06:07:46.669Z,92.50
2017-11-05T06:10:48.869Z,92.70
2017-11-05T06:13:50.276Z,92.70
2017-11-05T06:16:52.469Z,92.80
2017-11-05T06:19:53.892Z,92.70
2017-11-05T06:22:55.320Z,92.70
2017-11-05T06:25:56.766Z,91.50
2017-11-05T06:28:58.142Z,92.00
2017-11-05T06:31:59.606Z,91.80
2017-11-05T06:35:01.737Z,92.10
2017-11-05T06:38:03.172Z,91.70
2017-11-05T06:41:04.569Z,91.60
2017-11-05T06:44:06.043Z,91.30
2017-11-05T06:47:08.232Z,91.70
2017-11-05T06:50:09.679Z,91.70
2017-11-05T06:53:11.073Z,91.80
2017-11-05T06:56:12.518Z,91.60
2017-11-05T06:59:14.043Z,91.60
2017-11-05T07:02:15.437Z,91.80
2017-11-05T07:05:17.627Z,91.30
2017-11-05T07:08:19.833Z,91.10
2017-11-05T07:11:21.307Z,91.40
2017-11-05T07:14:22.733Z,91.10
2017-11-05T07:17:24.203Z,90.90
2017-11-05T07:20:25.618Z,91.10
2017-11-05T07:23:27.061Z,91.20
2017-11-05T07:26:28.542Z,90.90
2017-11-05T07:29:29.958Z,90.90
2017-11-05T07:32:31.461Z,90.80
2017-11-05T07:35:32.876Z,90.30
2017-11-05T07:38:35.032Z,90.50
2017-11-05T07:41:37.197Z,90.50
2017-11-05T07:44:38.661Z,90.40
2017-11-05T07:47:40.868Z,91.10
2017-11-05T07:50:42.268Z,90.80
2017-11-05T07:53:43.685Z,90.70
2017-11-05T07:56:45.131Z,90.20
2017-11-05T07:59:46.588Z,90.10
2017-11-05T08:02:48.040Z,90.50
2017-11-05T08:05:49.488Z,90.20
2017-11-05T08:08:50.903Z,90.30
2017-11-05T08:11:53.120Z,90.10
2017-11-05T08:14:54.708Z,90.10
2017-11-05T08:17:56.151Z,90.00
2017-11-05T08:20:57.575Z,90.00
2017-11-05T08:23:59.109Z,89.10
2017-11-05T08:27:00.600Z,89.50
2017-11-05T08:30:02.044Z,89.50
2017-11-05T08:33:03.491Z,89.40
2017-11-05T08:36:04.934Z,89.50
2017-11-05T08:39:06.390Z,89.20
2017-11-05T08:42:07.855Z,89.20
2017-11-05T08:45:09.319Z,89.50
2017-11-05T08:48:10.824Z,89.70
2017-11-05T08:51:12.272Z,90.10
2017-11-05T08:54:13.720Z,89.40
2017-11-05T08:57:15.159Z,90.10
2017-11-05T09:00:17.376Z,90.10
2017-11-05T09:03:18.798Z,90.00
2017-11-05T09:06:21.012Z,89.10
2017-11-05T09:09:22.565Z,89.10
2017-11-05T09:12:24.041Z,89.10
2017-11-05T09:15:25.487Z,87.90
2017-11-05T09:18:26.942Z,88.10
2017-11-05T09:21:28.437Z,88.20
2017-11-05T09:24:30.588Z,89.00
2017-11-05T09:27:31.995Z,88.70
2017-11-05T09:30:33.392Z,88.20
2017-11-05T09:33:35.641Z,87.50
2017-11-05T09:36:37.056Z,87.40
2017-11-05T09:39:38.500Z,86.30
2017-11-05T09:42:39.930Z,86.90
2017-11-05T09:45:43.423Z,86.70
2017-11-05T09:48:44.955Z,86.70
2017-11-05T09:51:46.400Z,86.40
2017-11-05T09:54:47.892Z,86.30
2017-11-05T09:57:50.054Z,86.50
2017-11-05T10:00:52.283Z,86.90
2017-11-05T10:03:53.690Z,86.80
2017-11-05T10:06:55.296Z,86.50
2017-11-05T10:09:56.871Z,87.50
2017-11-05T10:12:58.478Z,87.80
2017-11-05T10:16:00.007Z,88.00
2017-11-05T10:19:01.519Z,87.50
2017-11-05T10:22:03.150Z,87.30
2017-11-05T10:25:04.861Z,88.00
2017-11-05T10:28:07.114Z,87.40
2017-11-05T10:31:08.643Z,87.30
2017-11-05T10:34:10.151Z,88.10
2017-11-05T10:37:12.292Z,87.80
2017-11-05T10:40:13.710Z,87.70
2017-11-05T10:43:15.153Z,88.00
2017-11-05T10:46:16.571Z,87.80
2017-11-05T10:49:18.759Z,87.10
2017-11-05T10:52:20.173Z,87.00
2017-11-05T10:55:21.650Z,87.80
2017-11-05T10:58:23.795Z,86.90
2017-11-05T11:01:25.249Z,86.80
2017-11-05T11:04:26.672Z,86.70
2017-11-05T11:07:28.051Z,87.80
2017-11-05T11:10:29.535Z,85.70
2017-11-05T11:13:30.938Z,88.10
2017-11-05T11:16:32.349Z,84.60
2017-11-05T11:19:33.778Z,85.30
2017-11-05T11:22:35.982Z,85.60
2017-11-05T11:25:37.475Z,85.70
2017-11-05T11:28:38.970Z,86.00
2017-11-05T11:31:41.171Z,86.80
2017-11-05T11:34:42.604Z,86.50
2017-11-05T11:37:44.025Z,85.60
2017-11-05T11:40:46.233Z,85.50
2017-11-05T11:43:47.797Z,85.40
2017-11-05T11:46:49.638Z,86.80
2017-11-05T11:49:51.127Z,86.20
2017-11-05T11:52:52.595Z,86.20
2017-11-05T11:55:54.166Z,86.90
2017-11-05T11:58:55.681Z,87.10
2017-11-05T12:01:57.171Z,86.40
2017-11-05T12:04:59.468Z,87.20
2017-11-05T12:08:01.694Z,86.90
2017-11-05T12:14:12.811Z,85.80
2017-11-05T12:20:23.107Z,87.00
2017-11-05T12:23:25.335Z,87.20
2017-11-05T12:26:26.757Z,87.10
2017-11-05T12:29:28.221Z,85.60
2017-11-05T12:32:29.704Z,85.70
2017-11-05T12:35:31.452Z,86.90
2017-11-05T12:38:33.423Z,86.70
2017-11-05T12:41:34.915Z,86.60
2017-11-05T12:44:38.651Z,85.30
2017-11-05T12:47:40.497Z,85.40
2017-11-05T12:50:42.042Z,85.40
2017-11-05T12:53:45.076Z,85.70
2017-11-05T12:56:47.311Z,84.90
2017-11-05T12:59:50.809Z,82.40
2017-11-05T13:02:52.450Z,82.40
2017-11-05T13:05:56.186Z,83.70
2017-11-05T13:08:58.772Z,83.80
2017-11-05T13:12:00.792Z,83.80
2017-11-05T13:15:02.715Z,84.60
2017-11-05T13:18:04.856Z,85.70
2017-11-05T13:21:06.725Z,85.20
2017-11-05T13:24:08.750Z,84.60
2017-11-05T13:27:11.512Z,84.10
2017-11-05T13:30:13.577Z,84.00
2017-11-05T13:33:15.744Z,83.70
2017-11-05T13:36:17.534Z,85.40
2017-11-05T13:39:19.502Z,84.40
2017-11-05T13:42:21.050Z,82.70
2017-11-05T13:45:23.284Z,82.30
2017-11-05T13:48:24.705Z,82.30
2017-11-05T13:51:26.944Z,82.40
2017-11-05T13:54:28.366Z,82.40
2017-11-05T13:57:29.811Z,83.20
2017-11-05T14:00:31.278Z,84.50
2017-11-05T14:03:32.752Z,83.30
2017-11-05T14:06:34.223Z,82.80
2017-11-05T14:09:35.632Z,83.80
2017-11-05T14:12:37.112Z,83.60
2017-11-05T14:15:38.503Z,82.70
2017-11-05T14:18:40.681Z,83.00
2017-11-05T14:21:42.069Z,82.90
2017-11-05T14:24:43.527Z,80.50
2017-11-05T14:27:44.972Z,81.90
2017-11-05T14:30:46.435Z,83.90
2017-11-05T14:33:47.754Z,85.40
2017-11-05T14:36:49.175Z,85.30
2017-11-05T14:39:51.348Z,86.20
2017-11-05T14:42:53.505Z,86.20
2017-11-05T14:45:54.942Z,86.10
2017-11-05T14:48:56.382Z,86.90
2017-11-05T14:51:57.859Z,85.00
2017-11-05T14:54:59.263Z,81.90
2017-11-05T14:58:00.767Z,82.90
2017-11-05T15:01:02.249Z,82.50
2017-11-05T15:04:03.673Z,82.80
2017-11-05T15:07:05.076Z,83.80
2017-11-05T15:10:06.528Z,84.90
2017-11-05T15:13:07.946Z,85.10
2017-11-05T15:16:10.137Z,83.70
2017-11-05T15:19:11.591Z,83.60
2017-11-05T15:22:12.999Z,84.90
2017-11-05T15:25:15.168Z,84.60
2017-11-05T15:28:16.629Z,83.70
2017-11-05T15:31:18.839Z,84.10
2017-11-05T15:34:20.346Z,84.00
2017-11-05T15:37:21.796Z,84.90
2017-11-05T15:40:23.264Z,85.10
2017-11-05T15:43:25.428Z,84.50
2017-11-05T15:46:26.876Z,84.50
2017-11-05T15:49:28.314Z,85.70
2017-11-05T15:52:30.744Z,82.70
2017-11-05T15:55:32.206Z,83.80
2017-11-05T15:58:33.644Z,84.40
2017-11-05T16:01:35.148Z,83.70
2017-11-05T16:04:36.506Z,82.70
2017-11-05T16:07:38.016Z,83.10
2017-11-05T16:10:39.404Z,84.00
2017-11-05T16:13:40.854Z,83.50
2017-11-05T16:16:42.997Z,83.30
2017-11-05T16:19:44.463Z,83.80
2017-11-05T16:22:45.853Z,84.00
2017-11-05T16:25:47.992Z,83.10
2017-11-05T16:28:49.448Z,83.00
2017-11-05T16:31:51.567Z,84.50
2017-11-05T16:34:53.042Z,84.40
2017-11-05T16:37:54.452Z,84.50
2017-11-05T16:40:56.630Z,83.60
2017-11-05T16:43:58.036Z,83.50
2017-11-05T16:46:59.461Z,83.30
2017-11-05T16:50:00.850Z,82.90
2017-11-05T16:53:02.237Z,83.40
2017-11-05T16:56:03.729Z,83.90
2017-11-05T16:59:05.153Z,83.80
2017-11-05T17:02:06.623Z,84.20
2017-11-05T17:05:08.052Z,84.50
2017-11-05T17:08:09.605Z,84.60
2017-11-05T17:11:11.100Z,85.20
2017-11-05T17:14:12.568Z,84.60
2017-11-05T17:17:13.963Z,84.30
2017-11-05T17:20:15.439Z,85.60
2017-11-05T17:23:16.852Z,85.70
2017-11-05T17:26:19.039Z,84.70
2017-11-05T17:29:20.531Z,84.60
2017-11-05T17:32:23.580Z,85.30
2017-11-05T17:35:25.059Z,85.20
2017-11-05T17:38:27.974Z,85.40
2017-11-05T17:41:29.564Z,85.50
2017-11-05T17:44:31.769Z,84.40
2017-11-05T17:47:33.193Z,84.30
2017-11-05T17:50:34.619Z,84.70
2017-11-05T17:53:36.006Z,84.80
2017-11-05T17:56:37.432Z,84.50
2017-11-05T17:59:39.826Z,84.10
2017-11-05T18:02:41.930Z,83.90
2017-11-05T18:05:44.065Z,83.90
2017-11-05T18:08:45.498Z,83.90
2017-11-05T18:11:48.563Z,83.90
2017-11-05T18:14:50.463Z,83.70
2017-11-05T18:17:52.010Z,84.00
2017-11-05T18:20:54.695Z,84.50
2017-11-05T18:23:56.637Z,84.30
2017-11-05T18:26:58.296Z,84.40
2017-11-05T18:30:01.188Z,84.20
2017-11-05T18:33:03.355Z,84.20
2017-11-05T18:36:04.806Z,84.10
2017-11-05T18:39:07.167Z,85.00
2017-11-05T18:42:08.933Z,84.70
2017-11-05T18:45:12.135Z,84.40
2017-11-05T18:48:13.693Z,83.60
2017-11-05T18:51:16.751Z,84.00
2017-11-05T18:54:20.304Z,84.00
2017-11-05T18:57:22.210Z,83.90
2017-11-05T19:00:26.333Z,84.40
2017-11-05T19:03:27.885Z,84.40
2017-11-05T19:06:29.420Z,83.60
2017-11-05T19:09:30.937Z,83.70
2017-11-05T19:12:33.220Z,83.90
2017-11-05T19:15:34.713Z,83.80
2017-11-05T19:18:36.190Z,84.70
2017-11-05T19:21:39.709Z,84.10
2017-11-05T19:24:42.708Z,83.50
2017-11-05T19:27:44.287Z,83.30
2017-11-05T19:30:45.791Z,83.70
2017-11-05T19:33:47.641Z,83.50
2017-11-05T19:36:50.355Z,82.70
2017-11-05T19:39:52.050Z,83.70
2017-11-05T19:42:53.611Z,83.60
2017-11-05T19:45:56.539Z,83.20
2017-11-05T19:48:58.375Z,84.00
2017-11-05T19:55:10.901Z,83.90
2017-11-05T19:58:12.451Z,84.20
2017-11-05T20:01:15.187Z,83.20
2017-11-05T20:04:18.113Z,83.60
2017-11-05T20:07:23.080Z,83.40
2017-11-05T20:10:27.336Z,83.20
2017-11-05T20:13:29.320Z,83.30
2017-11-05T20:16:31.573Z,82.90
2017-11-05T20:19:34.381Z,82.90
2017-11-05T20:22:36.130Z,82.70
2017-11-05T20:25:38.153Z,82.60
2017-11-05T20:28:40.103Z,82.90
2017-11-05T20:31:41.631Z,82.50
2017-11-05T20:34:44.047Z,82.70
2017-11-05T20:37:45.696Z,82.80
2017-11-05T20:40:48.533Z,82.40
2017-11-05T20:43:50.903Z,82.60
2017-11-05T20:46:52.984Z,82.70
2017-11-05T20:49:56.381Z,82.70
2017-11-05T20:52:58.530Z,82.70
2017-11-05T20:56:02.263Z,82.50
2017-11-05T20:59:03.938Z,82.10
2017-11-05T21:02:05.772Z,82.80
2017-11-05T21:05:07.235Z,83.70
2017-11-05T21:08:08.721Z,83.30
2017-11-05T21:11:11.485Z,82.20
2017-11-05T21:14:12.935Z,82.10
2017-11-05T21:17:14.411Z,82.20
2017-11-05T21:20:15.903Z,82.40
2017-11-05T21:23:18.522Z,82.70
2017-11-05T21:26:20.822Z,82.60
2017-11-05T21:29:24.433Z,82.50
2017-11-05T21:32:27.253Z,86.10
2017-11-05T21:35:28.759Z,85.70
2017-11-05T21:38:31.083Z,65.70
2017-11-05T21:41:33.597Z,72.10
2017-11-05T21:44:35.300Z,76.40
2017-11-05T21:47:37.563Z,82.30
2017-11-05T21:50:39.039Z,82.10
2017-11-05T21:53:41.243Z,84.70
2017-11-05T21:56:42.670Z,84.60
2017-11-05T21:59:44.160Z,84.60
2017-11-05T22:02:45.668Z,85.00
2017-11-05T22:05:47.874Z,86.30
2017-11-05T22:08:49.359Z,86.00
2017-11-05T22:11:50.879Z,85.70
2017-11-05T22:14:52.322Z,85.90
2017-11-05T22:17:53.780Z,86.30
2017-11-05T22:20:55.233Z,87.30
2017-11-05T22:23:56.680Z,87.60
2017-11-05T22:26:58.111Z,86.90
2017-11-05T22:30:00.354Z,87.30
2017-11-05T22:33:01.819Z,87.30
2017-11-05T22:36:04.395Z,88.40
2017-11-05T22:39:06.274Z,87.50
2017-11-05T22:42:08.173Z,87.80
2017-11-05T22:45:10.028Z,88.30
2017-11-05T22:48:11.516Z,87.60
2017-11-05T22:51:12.920Z,87.60
2017-11-05T22:54:14.408Z,87.10
2017-11-05T22:57:15.784Z,87.10
2017-11-05T23:00:17.275Z,87.60
2017-11-05T23:03:18.796Z,88.30
2017-11-05T23:06:20.279Z,87.90
2017-11-05T23:09:21.748Z,87.80
2017-11-05T23:12:23.168Z,87.60
2017-11-05T23:15:25.455Z,86.90
2017-11-05T23:18:26.864Z,86.80
2017-11-05T23:21:28.368Z,86.70
2017-11-05T23:24:29.772Z,87.50
2017-11-05T23:27:31.585Z,87.50
2017-11-05T23:30:33.041Z,87.40
2017-11-05T23:33:34.436Z,87.70
2017-11-05T23:36:35.979Z,87.40
2017-11-05T23:39:37.416Z,87.10
2017-11-05T23:42:38.831Z,87.80
2017-11-05T23:45:41.056Z,87.40
2017-11-05T23:48:43.280Z,87.50
2017-11-05T23:51:44.764Z,87.30
2017-11-05T23:54:46.212Z,86.60
2017-11-05T23:57:47.647Z,86.40
